createdAt,value
2022-11-17T00:05:35.279Z,9.7
2022-11-17T00:15:35.377Z,9.8
2022-11-17T00:25:36.055Z,9.8
2022-11-17T00:35:36.855Z,9.9
2022-11-17T00:45:36.981Z,9.8
2022-11-17T00:55:37.701Z,9.7
2022-11-17T01:05:38.146Z,9.7
2022-11-17T01:15:38.839Z,9.8
2022-11-17T01:25:39.761Z,9.8
2022-11-17T01:35:40.321Z,9.8
2022-11-17T01:45:40.572Z,9.7
2022-11-17T01:55:40.842Z,9.6
2022-11-17T02:25:42.120Z,9.4
2022-11-17T02:35:42.449Z,9.4
2022-11-17T02:45:43.319Z,9.4
2022-11-17T02:55:44.092Z,9.4
2022-11-17T03:05:44.225Z,9.5
2022-11-17T03:15:44.770Z,9.5
2022-11-17T03:25:45.144Z,9.5
2022-11-17T03:35:50.425Z,9.5
2022-11-17T03:45:46.160Z,9.5
2022-11-17T03:55:46.459Z,9.6
2022-11-17T04:15:47.248Z,9.5
2022-11-17T04:25:48.081Z,9.5
2022-11-17T04:35:48.715Z,9.5
2022-11-17T04:45:49.327Z,9.5
2022-11-17T04:55:49.565Z,9.5
2022-11-17T05:05:50.623Z,9.6
2022-11-17T05:15:50.887Z,9.6
2022-11-17T05:25:51.409Z,9.7
2022-11-17T05:35:51.688Z,9.7
2022-11-17T05:45:51.879Z,9.7
2022-11-17T05:55:52.198Z,9.7
2022-11-17T06:05:52.652Z,9.7
2022-11-17T06:15:53.377Z,9.7
2022-11-17T06:25:53.931Z,9.6
2022-11-17T06:35:54.099Z,9.6
2022-11-17T06:45:55.118Z,9.6
2022-11-17T06:55:55.882Z,9.5
2022-11-17T07:05:56.530Z,9.5
2022-11-17T07:15:57.215Z,9.5
2022-11-17T07:25:57.543Z,9.6
2022-11-17T07:35:58.494Z,9.7
2022-11-17T07:45:59.453Z,9.8
2022-11-17T07:55:59.644Z,9.9
2022-11-17T08:06:00.428Z,10.1
2022-11-17T08:16:00.891Z,10.2
2022-11-17T08:26:01.745Z,10.4
2022-11-17T08:36:02.124Z,10.5
2022-11-17T08:46:02.226Z,10.5
2022-11-17T08:56:02.742Z,10.4
2022-11-17T09:06:03.090Z,10.4
2022-11-17T09:16:03.314Z,10.4
2022-11-17T09:26:03.582Z,10.4
2022-11-17T09:36:03.843Z,10.4
2022-11-17T09:56:04.536Z,10.3
2022-11-17T10:06:10.213Z,10.4
2022-11-17T10:16:11.227Z,10.4
2022-11-17T10:26:11.419Z,10.6
2022-11-17T10:36:11.814Z,10.8
2022-11-17T10:46:11.935Z,10.8
2022-11-17T11:06:17.429Z,11.1
2022-11-17T11:16:13.694Z,11.3
2022-11-17T11:26:14.517Z,11.4
2022-11-17T11:36:15.332Z,11.8
2022-11-17T11:46:16.397Z,12.2
2022-11-17T11:56:16.720Z,12.1
2022-11-17T12:06:17.250Z,12
2022-11-17T12:16:17.555Z,12
2022-11-17T12:26:17.675Z,11.9
2022-11-17T12:36:18.581Z,11.9
2022-11-17T12:46:19.587Z,11.8
2022-11-17T12:56:20.466Z,11.9
2022-11-17T13:06:34.724Z,11.9
2022-11-17T13:16:21.622Z,11.7
2022-11-17T13:26:22.173Z,11.7
2022-11-17T13:36:22.726Z,11.6
2022-11-17T13:56:23.373Z,11.5
2022-11-17T14:06:23.790Z,11.3
2022-11-17T14:16:24.613Z,11.1
2022-11-17T14:26:25.129Z,11
2022-11-17T14:36:26.003Z,11
2022-11-17T14:46:26.477Z,11
2022-11-17T14:56:26.646Z,11.1
2022-11-17T15:06:27.444Z,11
2022-11-17T15:16:27.820Z,11.1
2022-11-17T15:26:28.841Z,11.1
2022-11-17T15:36:29.889Z,11
2022-11-17T15:46:30.060Z,10.9
2022-11-17T15:56:30.631Z,10.7
2022-11-17T16:06:31.706Z,10.5
2022-11-17T16:16:32.584Z,10.5
2022-11-17T16:26:32.693Z,10.5
2022-11-17T16:36:36.447Z,10.5
2022-11-17T16:46:33.731Z,10.4
2022-11-17T16:56:34.042Z,10.3
2022-11-17T17:06:34.418Z,10.2
2022-11-17T17:16:35.014Z,10.6
2022-11-17T17:26:35.368Z,10.7
2022-11-17T17:36:35.742Z,10.7
2022-11-17T17:46:36.397Z,10.7
2022-11-17T17:56:37.174Z,10.6
2022-11-17T18:06:37.920Z,10.5
2022-11-17T18:16:38.389Z,10.2
2022-11-17T18:26:39.144Z,9.9
2022-11-17T18:36:40.073Z,9.6
2022-11-17T18:46:40.898Z,9.4
2022-11-17T18:56:41.224Z,9.2
2022-11-17T19:06:41.481Z,9.2
2022-11-17T19:16:44.698Z,9.1
2022-11-17T19:36:43.953Z,8.9
2022-11-17T19:46:44.331Z,8.9
2022-11-17T19:56:45.305Z,9.1
2022-11-17T20:06:45.859Z,9.3
2022-11-17T20:16:46.193Z,9.5
2022-11-17T20:26:46.990Z,9.6
2022-11-17T20:36:47.579Z,9.7
2022-11-17T20:46:47.967Z,9.9
2022-11-17T20:56:48.222Z,9.8
2022-11-17T21:06:48.534Z,9.5
2022-11-17T21:16:49.573Z,9.3
2022-11-17T21:26:50.162Z,8.9
2022-11-17T21:36:50.995Z,8.6
2022-11-17T21:46:51.670Z,8.4
2022-11-17T21:56:52.723Z,8.1
2022-11-17T22:06:53.012Z,7.8
2022-11-17T22:16:53.094Z,7.5
2022-11-17T22:36:54.504Z,7.1
2022-11-17T22:46:55.456Z,6.9
2022-11-17T22:56:55.785Z,6.8
2022-11-17T23:06:56.818Z,6.7
2022-11-17T23:16:57.172Z,6.6
2022-11-17T23:26:57.707Z,6.4
2022-11-17T23:37:03.469Z,6.4
2022-11-17T23:46:58.922Z,6.3
2022-11-17T23:56:59.389Z,6.2
